createdAt,value
2018-08-30T00:00:52.603Z,19.85
2018-08-30T00:03:21.607Z,19.84
2018-08-30T00:05:50.564Z,19.84
2018-08-30T00:08:19.650Z,19.77
2018-08-30T00:10:48.790Z,19.74
2018-08-30T00:13:17.881Z,19.74
2018-08-30T00:15:46.905Z,19.75
2018-08-30T00:18:15.935Z,19.73
2018-08-30T00:20:44.892Z,19.75
2018-08-30T00:23:13.958Z,19.78
2018-08-30T00:25:43.156Z,19.77
2018-08-30T00:28:12.179Z,19.76
2018-08-30T00:30:41.262Z,19.72
2018-08-30T00:33:10.228Z,19.66
2018-08-30T00:35:39.240Z,19.58
2018-08-30T00:38:08.229Z,19.51
2018-08-30T00:40:37.197Z,19.46
2018-08-30T00:43:06.282Z,19.42
2018-08-30T00:45:35.301Z,19.38
2018-08-30T00:48:04.346Z,19.34
2018-08-30T00:50:33.337Z,19.30
2018-08-30T00:53:02.364Z,19.27
2018-08-30T00:55:31.339Z,19.23
2018-08-30T00:58:00.309Z,19.20
2018-08-30T01:00:29.340Z,19.18
2018-08-30T01:02:58.420Z,19.15
2018-08-30T01:05:27.466Z,19.11
2018-08-30T01:07:56.516Z,19.09
2018-08-30T01:10:25.591Z,19.09
2018-08-30T01:12:55.812Z,19.08
2018-08-30T01:15:26.985Z,19.05
2018-08-30T01:17:56.604Z,19.04
2018-08-30T01:20:25.616Z,19.03
2018-08-30T01:22:54.596Z,19.04
2018-08-30T01:25:23.580Z,19.04
2018-08-30T01:27:52.596Z,19.03
2018-08-30T01:30:21.620Z,19.04
2018-08-30T01:32:50.659Z,19.03
2018-08-30T01:35:19.661Z,19.01
2018-08-30T01:37:48.613Z,18.98
2018-08-30T01:40:17.640Z,18.95
2018-08-30T01:42:46.704Z,18.92
2018-08-30T01:45:15.728Z,18.88
2018-08-30T01:47:44.730Z,18.84
2018-08-30T01:50:13.872Z,18.82
2018-08-30T01:52:42.904Z,18.80
2018-08-30T01:55:12.031Z,18.78
2018-08-30T01:57:41.045Z,18.78
2018-08-30T02:00:10.024Z,18.78
2018-08-30T02:02:39.046Z,18.78
2018-08-30T02:05:08.050Z,18.74
2018-08-30T02:07:37.072Z,18.71
2018-08-30T02:10:06.232Z,18.71
2018-08-30T02:12:35.237Z,18.70
2018-08-30T02:15:04.190Z,18.67
2018-08-30T02:17:33.193Z,18.65
2018-08-30T02:20:02.221Z,18.67
2018-08-30T02:22:31.240Z,18.67
2018-08-30T02:25:00.263Z,18.65
2018-08-30T02:27:29.204Z,18.64
2018-08-30T02:29:58.208Z,18.62
2018-08-30T02:32:27.226Z,18.61
2018-08-30T02:34:56.185Z,18.59
2018-08-30T02:37:25.156Z,18.54
2018-08-30T02:39:54.181Z,18.48
2018-08-30T02:42:23.256Z,18.42
2018-08-30T02:44:52.217Z,18.41
2018-08-30T02:47:21.172Z,18.38
2018-08-30T02:49:50.128Z,18.38
2018-08-30T02:52:19.132Z,18.36
2018-08-30T02:54:48.093Z,18.35
2018-08-30T02:57:17.044Z,18.33
2018-08-30T02:59:46.069Z,18.34
2018-08-30T03:02:15.073Z,18.36
2018-08-30T03:04:44.197Z,18.37
2018-08-30T03:07:13.317Z,18.36
2018-08-30T03:09:42.287Z,18.35
2018-08-30T03:12:11.313Z,18.36
2018-08-30T03:14:40.248Z,18.36
2018-08-30T03:17:09.368Z,18.33
2018-08-30T03:19:38.329Z,18.33
2018-08-30T03:22:07.405Z,18.31
2018-08-30T03:24:36.380Z,18.29
2018-08-30T03:27:05.376Z,18.28
2018-08-30T03:29:34.392Z,18.24
2018-08-30T03:32:03.324Z,18.19
2018-08-30T03:34:32.344Z,18.16
2018-08-30T03:37:01.296Z,18.15
2018-08-30T03:39:30.308Z,18.13
2018-08-30T03:41:59.323Z,18.14
2018-08-30T03:44:28.283Z,18.15
2018-08-30T03:46:57.321Z,18.17
2018-08-30T03:49:26.289Z,18.21
2018-08-30T03:51:55.481Z,18.23
2018-08-30T03:54:24.541Z,18.30
2018-08-30T03:56:53.545Z,18.34
2018-08-30T03:59:22.560Z,18.40
2018-08-30T04:01:51.516Z,18.46
2018-08-30T04:04:20.576Z,18.56
2018-08-30T04:06:49.615Z,18.66
2018-08-30T04:09:18.757Z,18.76
2018-08-30T04:11:47.715Z,18.86
2018-08-30T04:14:16.782Z,18.98
2018-08-30T04:16:45.743Z,19.08
2018-08-30T04:19:14.700Z,19.10
2018-08-30T04:21:43.754Z,19.19
2018-08-30T04:24:12.819Z,19.28
2018-08-30T04:26:41.858Z,19.41
2018-08-30T04:29:10.926Z,19.53
2018-08-30T04:31:40.049Z,19.65
2018-08-30T04:34:09.090Z,19.86
2018-08-30T04:36:38.035Z,20.12
2018-08-30T04:39:08.851Z,20.55
2018-08-30T04:41:38.264Z,21.11
2018-08-30T04:44:07.326Z,21.79
2018-08-30T04:46:36.400Z,22.45
2018-08-30T04:49:05.406Z,22.99
2018-08-30T04:51:34.443Z,23.55
2018-08-30T04:54:03.590Z,24.03
2018-08-30T04:56:32.688Z,24.56
2018-08-30T04:59:01.770Z,25.26
2018-08-30T05:01:30.777Z,25.92
2018-08-30T05:03:59.928Z,26.55
2018-08-30T05:06:28.999Z,27.24
2018-08-30T05:08:58.003Z,28.05
2018-08-30T05:11:27.123Z,28.67
2018-08-30T05:13:56.151Z,29.20
2018-08-30T05:16:25.166Z,29.70
2018-08-30T05:18:54.208Z,30.04
2018-08-30T05:21:23.240Z,30.33
2018-08-30T05:23:52.239Z,30.45
2018-08-30T05:26:21.272Z,30.52
2018-08-30T05:28:50.271Z,30.52
2018-08-30T05:31:19.373Z,30.53
2018-08-30T05:33:48.380Z,30.78
2018-08-30T05:36:17.458Z,30.02
2018-08-30T05:38:46.472Z,29.44
2018-08-30T05:41:15.428Z,28.53
2018-08-30T05:43:44.448Z,27.97
2018-08-30T05:46:13.400Z,27.54
2018-08-30T05:48:42.472Z,27.38
2018-08-30T05:51:11.541Z,27.47
2018-08-30T05:53:40.551Z,28.34
2018-08-30T05:56:09.665Z,29.53
2018-08-30T05:58:38.660Z,30.34
2018-08-30T06:01:07.728Z,31.08
2018-08-30T06:03:36.729Z,30.93
2018-08-30T06:06:05.802Z,30.28
2018-08-30T06:08:34.834Z,29.55
2018-08-30T06:11:03.791Z,28.75
2018-08-30T06:13:32.752Z,28.08
2018-08-30T06:16:01.706Z,27.52
2018-08-30T06:18:30.721Z,27.61
2018-08-30T06:20:59.683Z,27.30
2018-08-30T06:23:28.765Z,27.24
2018-08-30T06:25:57.885Z,27.59
2018-08-30T06:28:26.970Z,28.12
2018-08-30T06:30:55.956Z,27.95
2018-08-30T06:33:24.892Z,27.72
2018-08-30T06:35:53.896Z,27.58
2018-08-30T06:38:22.851Z,27.43
2018-08-30T06:40:51.880Z,27.20
2018-08-30T06:43:20.872Z,27.31
2018-08-30T06:45:49.874Z,27.22
2018-08-30T06:48:18.869Z,27.26
2018-08-30T06:50:47.888Z,27.06
2018-08-30T06:53:16.856Z,27.18
2018-08-30T06:55:45.929Z,27.60
2018-08-30T06:58:15.049Z,27.82
2018-08-30T07:00:44.060Z,27.73
2018-08-30T07:03:13.024Z,27.89
2018-08-30T07:05:41.975Z,27.81
2018-08-30T07:08:11.068Z,27.93
2018-08-30T07:10:40.228Z,27.80
2018-08-30T07:13:09.244Z,27.72
2018-08-30T07:15:38.433Z,27.69
2018-08-30T07:18:07.421Z,27.87
2018-08-30T07:20:36.361Z,28.10
2018-08-30T07:23:05.433Z,28.25
2018-08-30T07:25:34.365Z,28.37
2018-08-30T07:28:03.376Z,28.40
2018-08-30T07:30:32.312Z,28.37
2018-08-30T07:33:01.393Z,28.42
2018-08-30T07:35:30.336Z,28.64
2018-08-30T07:37:59.393Z,28.51
2018-08-30T07:40:28.469Z,28.71
2018-08-30T07:42:57.476Z,28.77
2018-08-30T07:45:26.493Z,28.97
2018-08-30T07:47:55.639Z,29.14
2018-08-30T07:50:24.656Z,29.30
2018-08-30T07:52:53.700Z,29.30
2018-08-30T07:55:22.692Z,29.36
2018-08-30T07:57:51.708Z,29.34
2018-08-30T08:00:20.807Z,29.47
2018-08-30T08:02:49.864Z,29.55
2018-08-30T08:05:18.857Z,29.60
2018-08-30T08:07:47.949Z,29.42
2018-08-30T08:10:16.912Z,29.55
2018-08-30T08:12:46.026Z,29.39
2018-08-30T08:15:15.053Z,29.69
2018-08-30T08:17:44.101Z,29.68
2018-08-30T08:20:13.180Z,29.72
2018-08-30T08:22:42.185Z,29.93
2018-08-30T08:25:11.149Z,29.91
2018-08-30T08:27:40.142Z,30.25
2018-08-30T08:30:09.155Z,30.25
2018-08-30T08:32:38.221Z,30.28
2018-08-30T08:35:07.630Z,30.28
2018-08-30T08:37:36.675Z,30.10
2018-08-30T08:40:05.877Z,30.02
2018-08-30T08:42:34.818Z,29.91
2018-08-30T08:45:03.828Z,29.98
2018-08-30T08:47:32.795Z,30.05
2018-08-30T08:50:01.960Z,30.28
2018-08-30T08:52:31.013Z,30.46
2018-08-30T08:55:00.103Z,30.45
2018-08-30T08:57:29.192Z,30.40
2018-08-30T08:59:58.199Z,30.39
2018-08-30T09:02:27.283Z,30.50
2018-08-30T09:04:56.376Z,30.54
2018-08-30T09:07:25.413Z,30.47
2018-08-30T09:09:54.464Z,30.62
2018-08-30T09:12:23.552Z,30.60
2018-08-30T09:14:52.525Z,30.65
2018-08-30T09:17:21.455Z,30.65
2018-08-30T09:19:50.452Z,30.64
2018-08-30T09:22:19.461Z,30.60
2018-08-30T09:24:48.421Z,30.73
2018-08-30T09:27:17.444Z,31.01
2018-08-30T09:29:46.626Z,30.95
2018-08-30T09:32:15.680Z,30.95
2018-08-30T09:34:44.888Z,30.82
2018-08-30T09:37:14.706Z,31.10
2018-08-30T09:39:44.911Z,31.46
2018-08-30T09:42:14.327Z,31.59
2018-08-30T09:44:43.292Z,31.63
2018-08-30T09:47:12.329Z,31.65
2018-08-30T09:49:41.399Z,31.80
2018-08-30T09:52:10.441Z,31.87
2018-08-30T09:54:39.500Z,31.88
2018-08-30T09:57:08.622Z,31.82
2018-08-30T09:59:37.684Z,31.72
2018-08-30T10:02:11.668Z,31.72
2018-08-30T10:04:40.818Z,31.78
2018-08-30T10:07:09.927Z,31.66
2018-08-30T10:09:38.924Z,31.80
2018-08-30T10:12:07.880Z,32.10
2018-08-30T10:14:36.892Z,32.28
2018-08-30T10:17:05.935Z,32.29
2018-08-30T10:19:34.948Z,32.30
2018-08-30T10:22:04.105Z,32.32
2018-08-30T10:24:33.127Z,32.49
2018-08-30T10:27:02.091Z,32.67
2018-08-30T10:29:31.053Z,32.90
2018-08-30T10:32:00.152Z,32.98
2018-08-30T10:34:29.133Z,32.97
2018-08-30T10:36:58.235Z,33.04
2018-08-30T10:39:27.284Z,33.05
2018-08-30T10:41:56.356Z,33.28
2018-08-30T10:44:25.425Z,33.66
2018-08-30T10:46:54.466Z,33.72
2018-08-30T10:49:23.557Z,33.75
2018-08-30T10:51:52.564Z,33.74
2018-08-30T10:54:21.589Z,33.77
2018-08-30T10:56:50.674Z,34.26
2018-08-30T10:59:19.808Z,34.90
2018-08-30T11:01:48.832Z,35.70
2018-08-30T11:04:18.018Z,36.12
2018-08-30T11:06:47.136Z,36.90
2018-08-30T11:09:16.192Z,37.32
2018-08-30T11:11:45.166Z,37.86
2018-08-30T11:14:14.246Z,38.63
2018-08-30T11:16:43.246Z,39.08
2018-08-30T11:19:12.253Z,38.48
2018-08-30T11:21:41.281Z,38.70
2018-08-30T11:24:10.881Z,38.62
2018-08-30T11:26:39.888Z,38.25
2018-08-30T11:29:08.944Z,38.45
2018-08-30T11:31:37.977Z,38.86
2018-08-30T11:34:07.357Z,38.86
2018-08-30T11:36:36.308Z,39.00
2018-08-30T11:39:06.798Z,39.21
2018-08-30T11:41:36.055Z,39.35
2018-08-30T11:44:04.917Z,39.83
2018-08-30T11:46:34.053Z,39.39
2018-08-30T11:49:03.080Z,39.69
2018-08-30T11:51:32.100Z,40.17
2018-08-30T11:54:01.064Z,39.80
2018-08-30T11:56:30.152Z,39.75
2018-08-30T11:58:59.105Z,39.67
2018-08-30T12:01:28.119Z,39.95
2018-08-30T12:03:57.838Z,39.85
2018-08-30T12:06:27.120Z,39.81
2018-08-30T12:08:56.384Z,40.41
2018-08-30T12:11:25.351Z,40.70
2018-08-30T12:13:54.347Z,41.00
2018-08-30T12:16:23.421Z,41.32
2018-08-30T12:18:52.553Z,40.96
2018-08-30T12:21:21.568Z,41.24
2018-08-30T12:23:50.548Z,41.10
2018-08-30T12:26:19.663Z,41.02
2018-08-30T12:28:48.970Z,41.12
2018-08-30T12:31:18.035Z,41.45
2018-08-30T12:33:47.176Z,42.03
2018-08-30T12:36:16.199Z,42.38
2018-08-30T12:38:45.227Z,42.78
2018-08-30T12:41:14.281Z,42.50
2018-08-30T12:43:43.298Z,42.04
2018-08-30T12:46:12.299Z,42.22
2018-08-30T12:48:41.363Z,42.59
2018-08-30T12:51:10.509Z,42.78
2018-08-30T12:53:39.524Z,42.81
2018-08-30T12:56:08.715Z,41.98
2018-08-30T12:58:37.856Z,40.53
2018-08-30T13:01:06.937Z,38.90
2018-08-30T13:03:36.044Z,37.86
2018-08-30T13:06:05.394Z,37.20
2018-08-30T13:08:34.309Z,36.60
2018-08-30T13:11:03.339Z,35.60
2018-08-30T13:13:32.332Z,35.00
2018-08-30T13:16:01.344Z,34.76
2018-08-30T13:18:30.379Z,34.44
2018-08-30T13:20:59.361Z,33.94
2018-08-30T13:23:28.369Z,33.49
2018-08-30T13:25:57.453Z,33.04
2018-08-30T13:28:26.546Z,32.88
2018-08-30T13:30:55.587Z,32.75
2018-08-30T13:33:24.876Z,32.63
2018-08-30T13:35:54.097Z,32.49
2018-08-30T13:38:23.385Z,32.29
2018-08-30T13:40:53.048Z,32.21
2018-08-30T13:43:22.131Z,32.09
2018-08-30T13:45:51.497Z,31.89
2018-08-30T13:48:20.822Z,31.78
2018-08-30T13:50:50.306Z,31.78
2018-08-30T13:53:19.569Z,31.75
2018-08-30T13:55:48.985Z,31.63
2018-08-30T13:58:17.712Z,31.56
2018-08-30T14:00:47.325Z,31.42
2018-08-30T14:03:16.535Z,31.41
2018-08-30T14:05:45.900Z,31.38
2018-08-30T14:08:15.026Z,31.35
2018-08-30T14:10:44.419Z,31.38
2018-08-30T14:13:13.488Z,31.39
2018-08-30T14:15:42.176Z,31.29
2018-08-30T14:18:11.207Z,31.17
2018-08-30T14:20:40.245Z,31.11
2018-08-30T14:23:09.402Z,31.08
2018-08-30T14:25:38.768Z,31.03
2018-08-30T14:28:08.396Z,30.94
2018-08-30T14:30:37.417Z,30.88
2018-08-30T14:33:06.521Z,30.84
2018-08-30T14:35:35.725Z,30.84
2018-08-30T14:38:04.983Z,30.79
2018-08-30T14:40:34.436Z,30.76
2018-08-30T14:43:03.385Z,30.79
2018-08-30T14:45:32.340Z,30.64
2018-08-30T14:48:01.510Z,30.59
2018-08-30T14:50:30.480Z,30.48
2018-08-30T14:52:59.778Z,30.42
2018-08-30T14:55:28.976Z,30.31
2018-08-30T14:57:58.294Z,30.28
2018-08-30T15:00:27.318Z,30.29
2018-08-30T15:02:56.453Z,30.25
2018-08-30T15:05:25.649Z,30.22
2018-08-30T15:07:54.824Z,30.14
2018-08-30T15:10:24.151Z,30.13
2018-08-30T15:12:53.210Z,30.04
2018-08-30T15:15:22.248Z,29.98
2018-08-30T15:17:51.340Z,29.99
2018-08-30T15:20:20.347Z,29.92
2018-08-30T15:22:49.285Z,29.90
2018-08-30T15:25:18.296Z,29.81
2018-08-30T15:27:47.357Z,29.76
2018-08-30T15:30:16.526Z,29.78
2018-08-30T15:32:45.426Z,29.75
2018-08-30T15:35:14.472Z,29.70
2018-08-30T15:37:43.540Z,29.69
2018-08-30T15:40:12.529Z,29.68
2018-08-30T15:42:41.608Z,29.63
2018-08-30T15:45:10.645Z,29.57
2018-08-30T15:47:39.626Z,29.54
2018-08-30T15:50:09.046Z,29.51
2018-08-30T15:52:38.465Z,29.44
2018-08-30T15:55:07.623Z,29.36
2018-08-30T15:57:36.542Z,29.30
2018-08-30T16:00:05.897Z,29.20
2018-08-30T16:02:34.897Z,29.13
2018-08-30T16:05:03.872Z,29.05
2018-08-30T16:07:32.936Z,28.98
2018-08-30T16:10:02.142Z,28.93
2018-08-30T16:12:31.154Z,28.82
2018-08-30T16:15:00.153Z,28.76
2018-08-30T16:17:29.208Z,28.64
2018-08-30T16:19:58.229Z,28.53
2018-08-30T16:22:53.164Z,28.42
2018-08-30T16:25:22.215Z,28.22
2018-08-30T16:27:51.285Z,28.07
2018-08-30T16:30:20.475Z,27.93
2018-08-30T16:32:49.502Z,27.76
2018-08-30T16:35:18.732Z,27.62
2018-08-30T16:37:47.745Z,27.47
2018-08-30T16:40:16.837Z,27.32
2018-08-30T16:42:45.944Z,27.17
2018-08-30T16:45:14.916Z,27.03
2018-08-30T16:47:44.050Z,26.88
2018-08-30T16:50:13.076Z,26.72
2018-08-30T16:52:42.102Z,26.58
2018-08-30T16:55:11.141Z,26.44
2018-08-30T16:57:40.160Z,26.30
2018-08-30T17:00:09.140Z,26.08
2018-08-30T17:02:38.180Z,25.91
2018-08-30T17:05:07.233Z,25.79
2018-08-30T17:07:36.225Z,25.66
2018-08-30T17:10:05.293Z,25.57
2018-08-30T17:12:34.512Z,25.45
2018-08-30T17:15:03.745Z,25.33
2018-08-30T17:17:33.026Z,25.22
2018-08-30T17:20:01.952Z,25.12
2018-08-30T17:22:31.040Z,25.00
2018-08-30T17:25:00.083Z,24.93
2018-08-30T17:27:29.115Z,24.82
2018-08-30T17:29:58.101Z,24.77
2018-08-30T17:32:27.156Z,24.75
2018-08-30T17:34:56.321Z,24.70
2018-08-30T17:37:25.377Z,24.62
2018-08-30T17:39:54.510Z,24.58
2018-08-30T17:42:23.639Z,24.51
2018-08-30T17:44:52.786Z,24.48
2018-08-30T17:47:21.766Z,24.45
2018-08-30T17:49:50.735Z,24.36
2018-08-30T17:52:19.872Z,24.29
2018-08-30T17:54:48.894Z,24.24
2018-08-30T17:57:17.928Z,24.16
2018-08-30T17:59:46.994Z,24.10
2018-08-30T18:02:16.020Z,24.02
2018-08-30T18:04:45.187Z,23.97
2018-08-30T18:07:14.270Z,23.87
2018-08-30T18:09:43.235Z,23.77
2018-08-30T18:12:12.172Z,23.70
2018-08-30T18:14:41.189Z,23.66
2018-08-30T18:17:10.260Z,23.60
2018-08-30T18:19:39.248Z,23.55
2018-08-30T18:22:08.336Z,23.50
2018-08-30T18:24:37.525Z,23.46
2018-08-30T18:27:06.903Z,23.42
2018-08-30T18:29:35.945Z,23.40
2018-08-30T18:32:04.998Z,23.38
2018-08-30T18:34:34.049Z,23.35
2018-08-30T18:37:03.008Z,23.30
2018-08-30T18:39:32.080Z,23.27
2018-08-30T18:42:01.152Z,23.22
2018-08-30T18:44:30.220Z,23.15
2018-08-30T18:46:59.308Z,23.08
2018-08-30T18:49:32.875Z,22.98
2018-08-30T18:52:01.983Z,22.93
2018-08-30T18:54:31.924Z,22.44
2018-08-30T18:57:00.910Z,22.85
2018-08-30T18:59:29.964Z,22.81
2018-08-30T19:01:59.137Z,22.75
2018-08-30T19:04:28.177Z,22.69
2018-08-30T19:06:57.272Z,22.68
2018-08-30T19:09:26.331Z,22.65
2018-08-30T19:11:55.358Z,22.69
2018-08-30T19:14:24.353Z,22.73
2018-08-30T19:16:58.471Z,22.75
2018-08-30T19:19:28.296Z,22.79
2018-08-30T19:21:58.371Z,22.80
2018-08-30T19:24:32.416Z,22.79
2018-08-30T19:27:01.450Z,22.76
2018-08-30T19:29:34.559Z,22.74
2018-08-30T19:32:03.505Z,22.75
2018-08-30T19:34:32.500Z,22.77
2018-08-30T19:37:01.533Z,22.73
2018-08-30T19:39:30.591Z,22.68
2018-08-30T19:41:59.682Z,22.64
2018-08-30T19:44:28.753Z,22.63
2018-08-30T19:46:57.840Z,22.61
2018-08-30T19:49:26.865Z,22.58
2018-08-30T19:51:55.953Z,22.51
2018-08-30T19:54:24.965Z,22.52
2018-08-30T19:56:53.981Z,22.46
2018-08-30T19:59:23.009Z,22.44
2018-08-30T20:01:52.027Z,22.43
2018-08-30T20:04:21.094Z,22.41
2018-08-30T20:06:50.040Z,22.40
2018-08-30T20:09:19.187Z,22.38
2018-08-30T20:11:48.156Z,22.34
2018-08-30T20:14:17.160Z,22.29
2018-08-30T20:16:46.213Z,22.28
2018-08-30T20:19:15.164Z,22.25
2018-08-30T20:21:44.633Z,22.21
2018-08-30T20:24:13.576Z,22.18
2018-08-30T20:26:42.652Z,22.17
2018-08-30T20:29:11.720Z,22.16
2018-08-30T20:31:40.833Z,22.12
2018-08-30T20:34:10.029Z,22.08
2018-08-30T20:36:38.992Z,22.04
2018-08-30T20:39:08.076Z,21.99
2018-08-30T20:41:37.206Z,21.95
2018-08-30T20:44:06.393Z,21.93
2018-08-30T20:46:35.404Z,21.90
2018-08-30T20:49:04.423Z,21.86
2018-08-30T20:51:33.389Z,21.85
2018-08-30T20:54:02.359Z,21.83
2018-08-30T20:56:31.469Z,21.83
2018-08-30T20:59:00.526Z,21.79
2018-08-30T21:01:29.668Z,21.72
2018-08-30T21:03:58.720Z,21.68
2018-08-30T21:06:27.789Z,21.63
2018-08-30T21:08:57.001Z,21.56
2018-08-30T21:11:26.082Z,21.50
2018-08-30T21:13:55.240Z,21.46
2018-08-30T21:16:24.198Z,21.39
2018-08-30T21:18:53.256Z,21.35
2018-08-30T21:21:22.269Z,21.28
2018-08-30T21:23:51.293Z,21.22
2018-08-30T21:26:20.308Z,21.17
2018-08-30T21:28:49.330Z,21.12
2018-08-30T21:31:18.352Z,21.11
2018-08-30T21:33:47.428Z,21.09
2018-08-30T21:36:16.497Z,21.08
2018-08-30T21:38:45.521Z,21.02
2018-08-30T21:41:14.564Z,20.99
2018-08-30T21:43:43.542Z,20.95
2018-08-30T21:46:12.632Z,20.90
2018-08-30T21:48:41.607Z,20.88
2018-08-30T21:51:10.795Z,20.85
2018-08-30T21:53:39.839Z,20.79
2018-08-30T21:56:08.922Z,20.77
2018-08-30T21:58:37.920Z,20.80
2018-08-30T22:01:06.949Z,20.77
2018-08-30T22:03:35.917Z,20.76
2018-08-30T22:06:04.953Z,20.75
2018-08-30T22:08:33.949Z,20.74
2018-08-30T22:11:02.999Z,20.73
2018-08-30T22:13:32.114Z,20.73
2018-08-30T22:16:01.068Z,20.71
2018-08-30T22:18:30.153Z,20.71
2018-08-30T22:20:59.138Z,20.65
2018-08-30T22:23:28.173Z,20.59
2018-08-30T22:25:57.180Z,20.54
2018-08-30T22:28:26.192Z,20.52
2018-08-30T22:30:55.261Z,20.45
2018-08-30T22:33:24.272Z,20.43
2018-08-30T22:35:53.236Z,20.42
2018-08-30T22:38:22.259Z,20.40
2018-08-30T22:40:51.326Z,20.38
2018-08-30T22:43:20.326Z,20.32
2018-08-30T22:45:49.393Z,20.27
2018-08-30T22:48:18.402Z,20.21
2018-08-30T22:50:47.396Z,20.16
2018-08-30T22:53:16.427Z,20.11
2018-08-30T22:55:45.377Z,20.09
2018-08-30T22:58:14.393Z,20.05
2018-08-30T23:00:43.340Z,19.97
2018-08-30T23:03:12.352Z,19.95
2018-08-30T23:05:41.411Z,19.93
2018-08-30T23:08:10.469Z,19.88
2018-08-30T23:10:39.529Z,19.88
2018-08-30T23:13:08.993Z,19.87
2018-08-30T23:15:37.964Z,19.89
2018-08-30T23:18:06.970Z,19.90
2018-08-30T23:20:36.159Z,19.90
2018-08-30T23:23:05.136Z,19.89
2018-08-30T23:25:34.120Z,19.88
2018-08-30T23:28:03.083Z,19.79
2018-08-30T23:30:32.085Z,19.75
2018-08-30T23:33:01.019Z,19.69
2018-08-30T23:35:29.962Z,19.65
2018-08-30T23:37:59.057Z,19.62
2018-08-30T23:40:28.008Z,19.59
2018-08-30T23:42:57.893Z,19.56
2018-08-30T23:45:26.848Z,19.51
2018-08-30T23:47:55.776Z,19.48
2018-08-30T23:50:24.731Z,19.44
2018-08-30T23:52:53.778Z,19.42
2018-08-30T23:55:22.797Z,19.40
2018-08-30T23:58:02.732Z,19.37
